createdAt,value
2023-04-22T00:02:24.607Z,4.50
2023-04-22T00:04:52.377Z,4.53
2023-04-22T00:07:20.070Z,4.20
2023-04-22T00:09:47.590Z,4.35
2023-04-22T00:12:15.384Z,4.30
2023-04-22T00:14:42.834Z,4.57
2023-04-22T00:17:10.312Z,4.20
2023-04-22T00:19:38.458Z,3.97
2023-04-22T00:22:06.281Z,4.10
2023-04-22T00:24:34.245Z,3.88
2023-04-22T00:27:01.792Z,4.00
2023-04-22T00:29:29.679Z,4.18
2023-04-22T00:31:57.489Z,4.68
2023-04-22T00:34:25.153Z,3.65
2023-04-22T00:36:52.717Z,4.38
2023-04-22T00:39:20.191Z,5.43
2023-04-22T00:41:48.320Z,4.90
2023-04-22T00:44:15.822Z,5.00
2023-04-22T00:46:43.298Z,4.80
2023-04-22T00:49:10.808Z,4.38
2023-04-22T00:51:38.379Z,4.47
2023-04-22T00:54:06.597Z,4.57
2023-04-22T00:56:36.403Z,4.80
2023-04-22T01:01:31.930Z,4.80
2023-04-22T01:04:01.120Z,5.18
2023-04-22T01:06:32.373Z,5.47
2023-04-22T01:09:00.264Z,5.03
2023-04-22T01:11:27.815Z,5.60
2023-04-22T01:13:56.533Z,5.40
2023-04-22T01:16:25.968Z,5.78
2023-04-22T01:18:54.364Z,5.70
2023-04-22T01:21:22.839Z,6.05
2023-04-22T01:23:51.313Z,6.03
2023-04-22T01:26:19.040Z,5.97
2023-04-22T01:28:46.933Z,5.50
2023-04-22T01:31:15.090Z,5.95
2023-04-22T01:33:44.331Z,5.60
2023-04-22T01:36:13.268Z,5.97
2023-04-22T01:38:41.217Z,5.40
2023-04-22T01:41:09.108Z,5.88
2023-04-22T01:43:36.823Z,5.65
2023-04-22T01:46:05.719Z,5.40
2023-04-22T01:48:35.660Z,6.07
2023-04-22T01:51:03.411Z,5.90
2023-04-22T01:53:31.275Z,6.00
2023-04-22T01:56:00.283Z,6.45
2023-04-22T01:58:30.966Z,6.45
2023-04-22T02:00:58.665Z,6.15
2023-04-22T02:03:26.349Z,5.75
2023-04-22T02:05:56.402Z,6.25
2023-04-22T02:08:24.134Z,6.65
2023-04-22T02:10:51.676Z,6.82
2023-04-22T02:13:19.799Z,6.65
2023-04-22T02:15:48.964Z,6.60
2023-04-22T02:18:18.082Z,6.57
2023-04-22T02:20:45.654Z,5.93
2023-04-22T02:23:13.199Z,6.25
2023-04-22T02:25:49.364Z,6.72
2023-04-22T02:28:19.938Z,6.55
2023-04-22T02:30:47.880Z,6.18
2023-04-22T02:33:15.677Z,5.82
2023-04-22T02:35:43.334Z,6.32
2023-04-22T02:38:15.049Z,6.93
2023-04-22T02:40:43.550Z,6.63
2023-04-22T02:43:13.206Z,6.60
2023-04-22T02:45:41.086Z,7.13
2023-04-22T02:48:08.933Z,7.45
2023-04-22T02:50:37.686Z,7.00
2023-04-22T02:53:05.364Z,7.00
2023-04-22T02:55:33.231Z,7.65
2023-04-22T02:58:00.928Z,7.07
2023-04-22T03:00:28.482Z,6.68
2023-04-22T03:02:56.228Z,6.85
2023-04-22T03:05:30.423Z,6.72
2023-04-22T03:07:58.101Z,7.20
2023-04-22T03:10:25.581Z,7.88
2023-04-22T03:12:53.215Z,6.95
2023-04-22T03:15:21.993Z,7.10
2023-04-22T03:17:49.995Z,6.93
2023-04-22T03:22:47.983Z,8.05
2023-04-22T03:25:17.151Z,7.15
2023-04-22T03:27:50.765Z,6.75
2023-04-22T03:30:18.863Z,7.28
2023-04-22T03:32:47.841Z,7.88
2023-04-22T03:35:38.809Z,7.68
2023-04-22T03:38:06.526Z,6.88
2023-04-22T03:40:35.820Z,8.50
2023-04-22T03:43:09.492Z,7.63
2023-04-22T03:45:37.349Z,7.75
2023-04-22T03:48:18.284Z,7.22
2023-04-22T03:50:49.610Z,6.95
2023-04-22T03:53:17.661Z,6.80
2023-04-22T03:55:45.862Z,7.28
2023-04-22T03:58:14.846Z,6.82
2023-04-22T04:00:43.038Z,7.32
2023-04-22T04:03:16.957Z,6.97
2023-04-22T04:05:47.652Z,5.90
2023-04-22T04:08:16.010Z,7.07
2023-04-22T04:10:44.490Z,6.85
2023-04-22T04:13:12.198Z,6.93
2023-04-22T04:18:42.448Z,7.15
2023-04-22T04:21:10.744Z,7.32
2023-04-22T04:23:44.474Z,6.82
2023-04-22T04:26:12.649Z,7.50
2023-04-22T04:28:43.577Z,7.45
2023-04-22T04:31:11.493Z,7.60
2023-04-22T04:33:39.680Z,6.75
2023-04-22T04:36:08.900Z,7.32
2023-04-22T04:38:36.580Z,6.87
2023-04-22T04:41:04.135Z,7.95
2023-04-22T04:43:32.960Z,7.43
2023-04-22T04:46:10.368Z,6.53
2023-04-22T04:48:42.513Z,7.70
2023-04-22T04:51:10.308Z,6.88
2023-04-22T04:53:43.257Z,7.35
2023-04-22T04:56:10.999Z,7.05
2023-04-22T04:58:38.886Z,7.80
2023-04-22T05:01:12.150Z,6.95
2023-04-22T05:03:39.991Z,8.02
2023-04-22T05:06:07.752Z,7.32
2023-04-22T05:08:37.478Z,7.43
2023-04-22T05:11:09.155Z,8.05
2023-04-22T05:13:36.785Z,6.90
2023-04-22T05:16:06.371Z,6.82
2023-04-22T05:18:33.852Z,6.88
2023-04-22T05:21:06.200Z,6.78
2023-04-22T05:23:35.340Z,6.55
2023-04-22T05:26:04.590Z,5.97
2023-04-22T05:28:33.072Z,6.20
2023-04-22T05:31:00.629Z,6.10
2023-04-22T05:33:30.133Z,6.78
2023-04-22T05:35:57.873Z,6.50
2023-04-22T05:38:25.671Z,6.30
2023-04-22T05:40:55.939Z,6.20
2023-04-22T05:43:24.803Z,5.07
2023-04-22T05:46:01.433Z,5.57
2023-04-22T05:48:29.337Z,5.55
2023-04-22T05:51:00.310Z,5.90
2023-04-22T05:58:27.488Z,5.20
2023-04-22T06:01:15.884Z,5.80
2023-04-22T06:03:54.100Z,5.82
2023-04-22T06:06:22.105Z,6.10
2023-04-22T06:08:49.803Z,6.03
2023-04-22T06:11:18.450Z,5.65
2023-04-22T06:13:46.049Z,5.60
2023-04-22T06:16:13.626Z,6.68
2023-04-22T06:18:43.453Z,6.07
2023-04-22T06:21:12.904Z,6.28
2023-04-22T06:23:40.960Z,5.93
2023-04-22T06:26:09.016Z,5.63
2023-04-22T06:28:37.972Z,5.95
2023-04-22T06:31:11.087Z,5.20
2023-04-22T06:33:38.897Z,5.30
2023-04-22T06:36:06.827Z,5.40
2023-04-22T06:38:35.985Z,4.78
2023-04-22T06:41:21.697Z,5.35
2023-04-22T06:43:50.905Z,5.47
2023-04-22T06:46:38.956Z,5.10
2023-04-22T06:49:32.808Z,4.47
2023-04-22T06:52:00.385Z,4.43
2023-04-22T06:54:27.958Z,4.47
2023-04-22T06:56:55.813Z,4.47
2023-04-22T06:59:24.210Z,4.00
2023-04-22T07:01:51.917Z,3.58
2023-04-22T07:04:19.681Z,3.60
2023-04-22T07:06:47.433Z,3.13
2023-04-22T07:09:15.006Z,3.25
2023-04-22T07:11:43.194Z,3.55
2023-04-22T07:14:18.342Z,3.17
2023-04-22T07:16:47.017Z,3.30
2023-04-22T07:19:14.633Z,3.03
2023-04-22T07:21:42.117Z,2.70
2023-04-22T07:24:13.315Z,2.85
2023-04-22T07:26:42.319Z,3.40
2023-04-22T07:29:10.087Z,3.17
2023-04-22T07:31:37.707Z,2.67
2023-04-22T07:34:05.407Z,2.80
2023-04-22T07:36:33.264Z,2.60
2023-04-22T07:39:00.836Z,2.75
2023-04-22T07:41:28.424Z,2.83
2023-04-22T07:43:56.018Z,2.60
2023-04-22T07:46:23.818Z,2.50
2023-04-22T07:48:51.364Z,2.60
2023-04-22T07:51:18.966Z,3.00
2023-04-22T07:53:46.716Z,10.18
2023-04-22T07:56:14.222Z,3.45
2023-04-22T07:58:41.758Z,3.08
2023-04-22T08:01:09.278Z,2.33
2023-04-22T08:03:37.175Z,5.68
2023-04-22T08:06:04.844Z,2.80
2023-04-22T08:08:32.388Z,3.20
2023-04-22T08:10:59.885Z,2.15
2023-04-22T08:13:27.356Z,2.28
2023-04-22T08:15:55.043Z,2.35
2023-04-22T08:18:22.601Z,2.40
2023-04-22T08:20:50.485Z,2.25
2023-04-22T08:23:17.965Z,2.58
2023-04-22T08:25:45.439Z,2.28
2023-04-22T08:28:12.945Z,2.10
2023-04-22T08:30:40.823Z,4.70
2023-04-22T08:33:08.327Z,2.30
2023-04-22T08:35:36.726Z,3.08
2023-04-22T08:38:04.280Z,2.30
2023-04-22T08:40:31.963Z,3.00
2023-04-22T08:42:59.605Z,2.55
2023-04-22T08:45:27.625Z,2.30
2023-04-22T08:47:56.438Z,2.20
2023-04-22T08:50:24.313Z,2.10
2023-04-22T08:52:51.909Z,2.15
2023-04-22T08:55:19.548Z,2.28
2023-04-22T08:57:48.001Z,1.85
2023-04-22T09:00:16.431Z,1.77
2023-04-22T09:02:45.849Z,1.88
2023-04-22T09:05:14.274Z,1.73
2023-04-22T09:07:42.121Z,1.77
2023-04-22T09:10:11.918Z,1.67
2023-04-22T09:12:41.250Z,1.92
2023-04-22T09:15:09.959Z,1.95
2023-04-22T09:17:41.484Z,2.00
2023-04-22T09:20:09.928Z,2.38
2023-04-22T09:22:43.779Z,2.53
2023-04-22T09:25:23.288Z,1.88
2023-04-22T09:27:54.870Z,1.92
2023-04-22T09:30:30.181Z,2.30
2023-04-22T09:33:03.079Z,1.65
2023-04-22T09:35:36.507Z,1.75
2023-04-22T09:38:08.176Z,2.30
2023-04-22T09:40:36.978Z,1.90
2023-04-22T09:43:07.722Z,2.22
2023-04-22T09:45:36.461Z,1.90
2023-04-22T09:48:22.071Z,2.00
2023-04-22T09:50:51.775Z,2.08
2023-04-22T09:55:51.642Z,16.92
2023-04-22T09:58:23.740Z,2.13
2023-04-22T10:00:55.001Z,1.52
2023-04-22T10:03:23.219Z,1.70
2023-04-22T10:05:51.187Z,1.45
2023-04-22T10:08:18.816Z,1.70
2023-04-22T10:10:46.847Z,1.52
2023-04-22T10:13:17.274Z,1.58
2023-04-22T10:15:52.934Z,1.65
2023-04-22T10:18:26.427Z,1.65
2023-04-22T10:20:56.455Z,1.73
2023-04-22T10:23:25.366Z,1.80
2023-04-22T10:25:56.615Z,1.83
2023-04-22T10:28:28.935Z,1.80
2023-04-22T10:30:57.757Z,1.95
2023-04-22T10:33:27.772Z,1.95
2023-04-22T10:36:20.656Z,1.90
2023-04-22T10:38:51.040Z,2.28
2023-04-22T10:41:27.098Z,2.25
2023-04-22T10:44:00.581Z,2.20
2023-04-22T10:46:37.867Z,2.25
2023-04-22T10:49:11.433Z,2.22
2023-04-22T10:51:43.028Z,2.55
2023-04-22T10:54:36.472Z,3.20
2023-04-22T10:57:04.966Z,5.95
2023-04-22T10:59:35.434Z,2.63
2023-04-22T11:02:05.633Z,2.10
2023-04-22T11:04:34.176Z,1.90
2023-04-22T11:07:27.881Z,2.03
2023-04-22T11:10:07.543Z,2.42
2023-04-22T11:15:11.416Z,2.37
2023-04-22T11:17:43.528Z,5.47
2023-04-22T11:20:13.213Z,2.70
2023-04-22T11:25:12.034Z,2.38
2023-04-22T11:27:41.194Z,2.10
2023-04-22T11:30:18.953Z,2.30
2023-04-22T11:32:52.042Z,1.90
2023-04-22T11:35:27.132Z,1.83
2023-04-22T11:38:00.671Z,2.13
2023-04-22T11:40:32.615Z,1.67
2023-04-22T11:43:03.104Z,1.98
2023-04-22T11:45:33.524Z,2.40
2023-04-22T11:48:02.028Z,2.00
2023-04-22T11:50:32.188Z,1.80
2023-04-22T11:53:01.640Z,2.28
2023-04-22T11:55:31.854Z,2.70
2023-04-22T11:58:07.354Z,2.10
2023-04-22T12:00:41.609Z,2.20
2023-04-22T12:03:15.106Z,1.98
2023-04-22T12:05:49.961Z,1.98
2023-04-22T12:08:20.070Z,1.50
2023-04-22T12:10:56.818Z,1.80
2023-04-22T12:13:29.014Z,1.95
2023-04-22T12:15:58.708Z,2.22
2023-04-22T12:18:29.420Z,1.92
2023-04-22T12:21:18.093Z,2.15
2023-04-22T12:23:52.771Z,1.83
2023-04-22T12:26:25.362Z,1.98
2023-04-22T12:28:55.141Z,2.13
2023-04-22T12:31:22.838Z,1.80
2023-04-22T12:33:50.894Z,2.00
2023-04-22T12:36:23.454Z,1.77
2023-04-22T12:38:51.416Z,2.13
2023-04-22T12:41:19.015Z,2.63
2023-04-22T12:43:46.694Z,2.05
2023-04-22T12:46:14.314Z,2.22
2023-04-22T12:48:42.924Z,2.03
2023-04-22T12:51:10.538Z,2.08
2023-04-22T12:53:38.214Z,2.47
2023-04-22T12:56:05.811Z,1.95
2023-04-22T12:58:33.317Z,2.70
2023-04-22T13:01:00.842Z,2.35
2023-04-22T13:03:28.805Z,2.45
2023-04-22T13:05:56.420Z,1.38
2023-04-22T13:08:23.944Z,1.80
2023-04-22T13:10:51.565Z,1.52
2023-04-22T13:13:19.622Z,2.03
2023-04-22T13:15:50.627Z,2.20
2023-04-22T13:18:18.434Z,2.13
2023-04-22T13:20:46.353Z,2.30
2023-04-22T13:23:14.458Z,2.92
2023-04-22T13:25:42.035Z,2.90
2023-04-22T13:28:11.515Z,3.03
2023-04-22T13:33:07.534Z,2.63
2023-04-22T13:35:35.749Z,2.30
2023-04-22T13:38:03.450Z,2.60
2023-04-22T13:40:30.913Z,1.98
2023-04-22T13:42:59.032Z,2.53
2023-04-22T13:45:26.670Z,2.75
2023-04-22T13:47:54.527Z,2.90
2023-04-22T13:50:23.398Z,3.20
2023-04-22T13:52:51.304Z,3.00
2023-04-22T13:55:18.942Z,2.60
2023-04-22T13:57:46.703Z,3.80
2023-04-22T14:00:14.962Z,2.97
2023-04-22T14:02:42.823Z,3.15
2023-04-22T14:05:10.940Z,2.67
2023-04-22T14:07:38.767Z,3.00
2023-04-22T14:10:08.522Z,2.67
2023-04-22T14:12:36.331Z,2.63
2023-04-22T14:15:04.157Z,3.38
2023-04-22T14:17:32.726Z,2.55
2023-04-22T14:20:00.242Z,2.70
2023-04-22T14:22:27.843Z,3.20
2023-04-22T14:24:55.737Z,2.58
2023-04-22T14:27:23.297Z,2.50
2023-04-22T14:29:54.001Z,3.28
2023-04-22T14:32:21.942Z,3.47
2023-04-22T14:34:49.497Z,2.80
2023-04-22T14:37:17.024Z,3.25
2023-04-22T14:39:44.514Z,3.33
2023-04-22T14:42:12.245Z,4.40
2023-04-22T14:44:39.877Z,4.97
2023-04-22T14:47:07.496Z,4.15
2023-04-22T14:49:35.047Z,3.60
2023-04-22T14:52:03.018Z,3.97
2023-04-22T14:54:30.863Z,3.97
2023-04-22T14:56:58.697Z,4.40
2023-04-22T14:59:26.553Z,4.20
2023-04-22T15:01:54.242Z,4.03
2023-04-22T15:04:21.912Z,3.88
2023-04-22T15:06:49.559Z,3.70
2023-04-22T15:09:17.520Z,3.47
2023-04-22T15:11:45.013Z,3.90
2023-04-22T15:14:12.593Z,4.38
2023-04-22T15:16:40.362Z,4.35
2023-04-22T15:19:08.259Z,3.67
2023-04-22T15:21:36.058Z,3.85
2023-04-22T15:24:03.610Z,4.07
2023-04-22T15:26:32.333Z,2.97
2023-04-22T15:29:00.589Z,3.97
2023-04-22T15:31:28.265Z,4.57
2023-04-22T15:33:56.348Z,3.80
2023-04-22T15:36:23.858Z,3.88
2023-04-22T15:38:56.537Z,3.92
2023-04-22T15:41:24.881Z,4.38
2023-04-22T15:43:53.791Z,3.63
2023-04-22T15:46:22.421Z,3.90
2023-04-22T15:48:50.296Z,4.23
2023-04-22T15:51:18.975Z,3.92
2023-04-22T15:53:46.630Z,4.32
2023-04-22T15:56:15.367Z,4.35
2023-04-22T15:58:43.030Z,5.22
2023-04-22T16:01:18.762Z,4.45
2023-04-22T16:03:48.762Z,4.72
2023-04-22T16:06:18.061Z,4.80
2023-04-22T16:08:46.165Z,4.60
2023-04-22T16:11:15.325Z,4.15
2023-04-22T16:13:43.020Z,4.32
2023-04-22T16:16:11.205Z,5.78
2023-04-22T16:18:41.416Z,4.28
2023-04-22T16:21:10.710Z,4.45
2023-04-22T16:23:38.296Z,4.45
2023-04-22T16:26:06.514Z,4.15
2023-04-22T16:28:34.144Z,4.68
2023-04-22T16:31:02.430Z,4.13
2023-04-22T16:33:30.028Z,4.45
2023-04-22T16:35:57.505Z,3.97
2023-04-22T16:38:25.040Z,4.32
2023-04-22T16:40:54.413Z,4.47
2023-04-22T16:43:22.111Z,5.03
2023-04-22T16:45:49.747Z,4.70
2023-04-22T16:48:18.514Z,4.80
2023-04-22T16:50:46.131Z,5.78
2023-04-22T16:53:13.657Z,5.80
2023-04-22T16:55:41.486Z,6.10
2023-04-22T16:58:09.124Z,5.60
2023-04-22T17:00:37.407Z,5.90
2023-04-22T17:03:06.179Z,4.63
2023-04-22T17:05:34.202Z,4.38
2023-04-22T17:08:02.172Z,3.83
2023-04-22T17:10:30.238Z,3.70
2023-04-22T17:12:57.866Z,3.63
2023-04-22T17:15:25.356Z,4.07
2023-04-22T17:17:52.865Z,4.10
2023-04-22T17:20:20.590Z,3.72
2023-04-22T17:22:48.101Z,3.83
2023-04-22T17:25:15.649Z,3.22
2023-04-22T17:27:43.108Z,3.60
2023-04-22T17:30:11.117Z,3.50
2023-04-22T17:32:39.010Z,4.20
2023-04-22T17:35:06.998Z,4.40
2023-04-22T17:37:34.525Z,5.05
2023-04-22T17:40:04.804Z,4.70
2023-04-22T17:42:44.645Z,4.63
2023-04-22T17:45:13.252Z,4.80
2023-04-22T17:47:40.913Z,4.88
2023-04-22T17:50:08.849Z,5.05
2023-04-22T17:52:36.634Z,5.20
2023-04-22T17:55:04.604Z,5.70
2023-04-22T17:57:32.200Z,5.70
2023-04-22T17:59:59.939Z,5.57
2023-04-22T18:02:27.721Z,4.82
2023-04-22T18:04:55.334Z,5.18
2023-04-22T18:07:23.034Z,5.13
2023-04-22T18:09:50.810Z,5.85
2023-04-22T18:12:18.691Z,5.80
2023-04-22T18:14:46.281Z,6.72
2023-04-22T18:17:14.043Z,5.93
2023-04-22T18:19:41.874Z,6.15
2023-04-22T18:22:09.549Z,6.32
2023-04-22T18:24:37.324Z,6.30
2023-04-22T18:27:04.853Z,6.72
2023-04-22T18:29:32.552Z,8.13
2023-04-22T18:32:00.062Z,7.20
2023-04-22T18:34:29.148Z,7.75
2023-04-22T18:36:56.684Z,8.35
2023-04-22T18:39:24.177Z,8.52
2023-04-22T18:41:52.122Z,9.00
2023-04-22T18:44:20.515Z,10.20
2023-04-22T18:46:48.144Z,10.65
2023-04-22T18:49:15.647Z,11.43
2023-04-22T18:51:43.112Z,10.40
2023-04-22T18:54:10.613Z,12.48
2023-04-22T18:56:38.148Z,10.48
2023-04-22T18:59:05.778Z,9.85
2023-04-22T19:01:36.796Z,10.35
2023-04-22T19:04:04.581Z,10.60
2023-04-22T19:06:32.962Z,11.30
2023-04-22T19:09:00.655Z,10.80
2023-04-22T19:11:28.152Z,11.35
2023-04-22T19:13:55.722Z,12.48
2023-04-22T19:16:25.667Z,12.23
2023-04-22T19:18:54.080Z,12.82
2023-04-22T19:21:21.985Z,11.60
2023-04-22T19:23:52.958Z,11.80
2023-04-22T19:26:21.264Z,12.75
2023-04-22T19:28:49.240Z,11.55
2023-04-22T19:31:17.380Z,22.30
2023-04-22T19:33:45.299Z,12.38
2023-04-22T19:36:13.020Z,12.25
2023-04-22T19:38:40.860Z,11.50
2023-04-22T19:41:09.203Z,12.73
2023-04-22T19:43:37.946Z,13.40
2023-04-22T19:46:05.508Z,12.95
2023-04-22T19:48:33.700Z,12.68
2023-04-22T19:51:01.550Z,12.18
2023-04-22T19:53:30.863Z,13.48
2023-04-22T19:55:58.668Z,12.85
2023-04-22T19:58:28.269Z,12.80
2023-04-22T20:03:24.073Z,11.50
2023-04-22T20:05:52.096Z,44.55
2023-04-22T20:08:20.011Z,12.50
2023-04-22T20:10:49.731Z,10.38
2023-04-22T20:13:18.055Z,9.23
2023-04-22T20:15:45.641Z,9.27
2023-04-22T20:18:13.278Z,9.65
2023-04-22T20:20:45.784Z,9.60
2023-04-22T20:23:14.914Z,10.90
2023-04-22T20:25:47.159Z,12.88
2023-04-22T20:28:15.007Z,20.38
2023-04-22T20:30:43.054Z,14.07
2023-04-22T20:33:15.750Z,13.13
2023-04-22T20:35:46.126Z,12.55
2023-04-22T20:38:15.131Z,13.57
2023-04-22T20:40:44.744Z,13.18
2023-04-22T20:45:40.554Z,12.52
2023-04-22T20:48:08.371Z,11.30
2023-04-22T20:50:36.059Z,11.35
2023-04-22T20:53:03.936Z,11.75
2023-04-22T20:55:31.795Z,11.45
2023-04-22T20:57:59.530Z,11.50
2023-04-22T21:00:27.134Z,11.15
2023-04-22T21:02:55.939Z,10.55
2023-04-22T21:05:23.672Z,10.60
2023-04-22T21:07:52.712Z,10.98
2023-04-22T21:10:21.184Z,10.25
2023-04-22T21:12:49.029Z,10.30
2023-04-22T21:15:16.973Z,11.18
2023-04-22T21:17:51.966Z,10.98
2023-04-22T21:20:19.902Z,11.48
2023-04-22T21:22:48.387Z,11.48
2023-04-22T21:25:22.173Z,10.90
2023-04-22T21:27:50.309Z,11.57
2023-04-22T21:30:18.456Z,10.80
2023-04-22T21:32:45.962Z,10.88
2023-04-22T21:35:13.552Z,11.18
2023-04-22T21:37:41.365Z,10.75
2023-04-22T21:40:13.094Z,10.50
2023-04-22T21:42:41.753Z,10.70
2023-04-22T21:45:09.750Z,10.63
2023-04-22T21:47:37.737Z,11.07
2023-04-22T21:50:06.731Z,10.77
2023-04-22T21:52:35.024Z,11.38
2023-04-22T21:55:02.627Z,11.32
2023-04-22T21:57:30.428Z,10.95
2023-04-22T21:59:57.983Z,10.88
2023-04-22T22:02:28.374Z,10.20
2023-04-22T22:04:55.892Z,10.40
2023-04-22T22:07:23.466Z,10.93
2023-04-22T22:09:50.928Z,10.48
2023-04-22T22:12:18.761Z,10.40
2023-04-22T22:14:46.339Z,10.95
2023-04-22T22:17:13.920Z,11.02
2023-04-22T22:19:42.068Z,10.75
2023-04-22T22:22:09.555Z,10.70
2023-04-22T22:24:37.145Z,10.90
2023-04-22T22:27:05.517Z,10.30
2023-04-22T22:29:34.382Z,11.20
2023-04-22T22:32:01.982Z,10.32
2023-04-22T22:34:29.673Z,10.52
2023-04-22T22:36:57.178Z,9.45
2023-04-22T22:39:24.831Z,9.80
2023-04-22T22:41:52.341Z,10.60
2023-04-22T22:44:19.791Z,10.55
2023-04-22T22:46:47.421Z,11.07
2023-04-22T22:49:14.954Z,10.65
2023-04-22T22:51:42.455Z,11.05
2023-04-22T22:54:10.001Z,10.25
2023-04-22T22:56:37.520Z,11.23
2023-04-22T22:59:05.237Z,10.38
2023-04-22T23:01:32.900Z,10.80
2023-04-22T23:04:01.125Z,10.55
2023-04-22T23:06:28.919Z,11.15
2023-04-22T23:08:57.207Z,10.32
2023-04-22T23:11:24.826Z,10.07
2023-04-22T23:13:52.267Z,9.70
2023-04-22T23:16:19.842Z,9.20
2023-04-22T23:18:48.149Z,9.50
2023-04-22T23:21:16.280Z,9.63
2023-04-22T23:23:43.900Z,8.85
2023-04-22T23:26:11.820Z,9.35
2023-04-22T23:28:39.798Z,9.20
2023-04-22T23:31:09.144Z,8.32
2023-04-22T23:33:41.915Z,12.80
2023-04-22T23:36:11.562Z,11.15
2023-04-22T23:41:06.751Z,9.07
2023-04-22T23:43:34.321Z,10.90
2023-04-22T23:46:01.874Z,8.88
2023-04-22T23:48:29.778Z,8.18
2023-04-22T23:50:57.306Z,8.52
2023-04-22T23:53:24.824Z,7.65
2023-04-22T23:55:52.530Z,8.18
2023-04-22T23:58:20.375Z,8.32
